Terminal Aerodrome Forecast
Issued by NWS

Home | Current Version | Previous Version | Text Only | Print | Product List | Glossary On
Versions: 1 2 3 4 5 6 7 8 9 10 11 12 13 14 15 16 17 18 19 20 21 22 23 24
000
FTUS44 KOUN 242321
TAFPNC
TAF
KPNC 242321Z 2500/2524 19012KT P6SM BKN090 BKN250
      TEMPO 2500/2502 VRB30G50KT 1SM +TSRA OVC050CB
     FM250300 16006KT P6SM BKN050 OVC250
      TEMPO 2506/2510 VRB25KT 4SM -TSRA OVC040CB
     FM251500 21010KT P6SM OVC060=

USA.gov is the U.S. government's official web portal to all federal, state and local government web resources and services.